Time;durP1;ratioP1;P1;durP2;ratioP2;P2;SDS_P1;SDS_P2;PMS_P1;PMS_P2;Temp;Humidity;BMP_temperature;BMP_pressure;BME280_temperature;BME280_humidity;BME280_pressure;Samples;Min_cycle;Max_cycle;Signal;HPM_P1;HPM_P2
2023/02/05 00:01:03;;;;;;;1.90;1.80;;;;;;;-2.05;100.00;100129.88;104412;1257;70561;-62
2023/02/05 00:03:34;;;;;;;2.60;1.90;;;;;;;-1.97;100.00;100137.92;104479;1256;74139;-62
2023/02/05 00:06:03;;;;;;;3.10;1.70;;;;;;;-1.97;100.00;100131.23;104671;1254;61705;-63
2023/02/05 00:08:33;;;;;;;1.50;1.40;;;;;;;-1.96;100.00;100134.14;104309;1258;61608;-62
2023/02/05 00:11:08;;;;;;;2.10;1.70;;;;;;;-1.96;100.00;100137.41;104315;1269;74346;-63
2023/02/05 00:13:40;;;;;;;1.60;1.40;;;;;;;-1.95;100.00;100138.28;104352;1255;70881;-62
2023/02/05 00:16:13;;;;;;;1.80;1.60;;;;;;;-1.97;100.00;100143.56;104495;1269;72981;-63
2023/02/05 00:18:42;;;;;;;1.60;1.50;;;;;;;-2.01;100.00;100140.61;104396;1266;62736;-64
2023/02/05 00:21:11;;;;;;;1.80;1.70;;;;;;;-1.97;100.00;100144.96;104286;1256;61721;-62
2023/02/05 00:23:39;;;;;;;2.20;1.90;;;;;;;-1.92;100.00;100141.25;104548;1255;74802;-62
2023/02/05 00:26:09;;;;;;;2.50;1.80;;;;;;;-1.86;100.00;100143.41;104382;1267;69892;-63
2023/02/05 00:28:38;;;;;;;2.00;1.80;;;;;;;-1.84;100.00;100141.02;104686;1256;73379;-62
2023/02/05 00:31:24;;;;;;;1.50;1.30;;;;;;;-1.88;100.00;100141.34;104563;1251;61914;-62
2023/02/05 00:33:53;;;;;;;1.90;1.70;;;;;;;-1.93;100.00;100138.31;104396;1268;61670;-63
2023/02/05 00:36:22;;;;;;;1.50;1.30;;;;;;;-1.98;100.00;100138.59;104324;1255;75353;-62
2023/02/05 00:38:51;;;;;;;1.60;1.50;;;;;;;-1.98;100.00;100141.34;104466;1256;69705;-62
2023/02/05 00:41:19;;;;;;;1.80;1.60;;;;;;;-1.90;100.00;100141.63;104708;1251;72918;-62
2023/02/05 00:43:48;;;;;;;2.80;2.00;;;;;;;-1.89;100.00;100145.25;104484;1255;60589;-62
2023/02/05 00:46:16;;;;;;;3.10;1.90;;;;;;;-1.89;100.00;100148.18;104403;1260;61589;-63
2023/02/05 00:48:45;;;;;;;2.50;1.70;;;;;;;-1.87;100.00;100151.66;104402;1265;75372;-62
2023/02/05 00:51:14;;;;;;;2.20;1.50;;;;;;;-1.86;100.00;100148.74;104435;1256;70807;-62
2023/02/05 00:53:42;;;;;;;1.70;1.40;;;;;;;-1.87;100.00;100145.63;104370;1256;73611;-62
2023/02/05 00:56:11;;;;;;;1.60;1.50;;;;;;;-1.88;100.00;100143.73;104422;1266;63010;-64
2023/02/05 00:58:39;;;;;;;2.00;1.40;;;;;;;-1.83;100.00;100143.30;104335;1263;61689;-62
2023/02/05 01:01:08;;;;;;;2.20;1.70;;;;;;;-1.75;100.00;100139.97;104424;1255;74050;-62
2023/02/05 01:03:37;;;;;;;1.60;1.40;;;;;;;-1.75;100.00;100138.08;104553;1269;69646;-63
2023/02/05 01:06:06;;;;;;;3.30;1.40;;;;;;;-1.79;100.00;100142.48;104798;1256;73072;-63
2023/02/05 01:08:34;;;;;;;2.40;1.70;;;;;;;-1.79;100.00;100138.70;104292;1274;61727;-66
2023/02/05 01:11:05;;;;;;;2.10;1.50;;;;;;;-1.78;100.00;100136.14;104256;1274;61697;-62
2023/02/05 01:13:34;;;;;;;2.20;1.80;;;;;;;-1.79;100.00;100137.51;104376;1259;74910;-62
2023/02/05 01:16:04;;;;;;;2.30;1.50;;;;;;;-1.78;100.00;100136.14;104352;1256;70061;-62
2023/02/05 01:18:32;;;;;;;1.50;1.40;;;;;;;-1.71;100.00;100134.17;104313;1256;72924;-62
2023/02/05 01:21:01;;;;;;;2.20;2.00;;;;;;;-1.69;100.00;100135.94;104286;1274;61661;-65
2023/02/05 01:23:29;;;;;;;1.90;1.70;;;;;;;-1.69;100.00;100139.70;104205;1271;60527;-63
2023/02/05 01:25:58;;;;;;;2.10;1.60;;;;;;;-1.70;100.00;100139.70;104328;1255;75642;-64
2023/02/05 01:28:29;;;;;;;1.90;1.70;;;;;;;-1.75;100.00;100144.80;104394;1256;70901;-63
2023/02/05 01:30:57;;;;;;;1.80;1.60;;;;;;;-1.75;100.00;100145.11;104363;1254;73579;-64
2023/02/05 01:33:25;;;;;;;1.90;1.60;;;;;;;-1.76;100.00;100141.17;104388;1269;62416;-63
2023/02/05 01:35:54;;;;;;;2.20;1.80;;;;;;;-1.67;100.00;100147.47;104380;1264;61671;-64
2023/02/05 01:38:23;;;;;;;1.50;1.40;;;;;;;-1.62;100.00;100148.41;104383;1256;74357;-64
2023/02/05 01:40:52;;;;;;;2.60;2.00;;;;;;;-1.60;100.00;100150.67;104341;1268;69657;-63
2023/02/05 01:43:20;;;;;;;1.50;1.40;;;;;;;-1.60;100.00;100151.89;104472;1262;73813;-64
2023/02/05 01:45:54;;;;;;;1.90;1.70;;;;;;;-1.63;100.00;100154.59;104470;1262;61683;-64
2023/02/05 01:48:26;;;;;;;1.70;1.50;;;;;;;-1.64;100.00;100153.71;104427;1256;61622;-64
2023/02/05 01:50:56;;;;;;;2.00;1.50;;;;;;;-1.61;100.00;100155.47;104465;1255;74203;-64
2023/02/05 01:53:27;;;;;;;1.80;1.40;;;;;;;-1.51;100.00;100161.12;104477;1266;71094;-64
2023/02/05 01:56:05;;;;;;;1.40;1.30;;;;;;;-1.47;100.00;100157.22;104435;1256;73570;-64
2023/02/05 01:58:43;;;;;;;1.50;1.40;;;;;;;-1.47;100.00;100157.73;104495;1256;61635;-64
2023/02/05 02:01:12;;;;;;;1.50;1.10;;;;;;;-1.50;100.00;100156.48;104426;1251;61961;-64
2023/02/05 02:03:41;;;;;;;1.70;1.30;;;;;;;-1.56;100.00;100153.66;104683;1255;74285;-64
2023/02/05 02:06:10;;;;;;;1.60;1.40;;;;;;;-1.63;100.00;100158.02;104460;1255;71146;-64
2023/02/05 02:08:39;;;;;;;1.90;1.20;;;;;;;-1.63;100.00;100155.98;104441;1259;73212;-64
2023/02/05 02:11:08;;;;;;;2.00;1.40;;;;;;;-1.57;100.00;100152.95;104372;1272;61806;-64
2023/02/05 02:13:37;;;;;;;1.40;1.30;;;;;;;-1.55;100.00;100154.70;104271;1257;61687;-63
2023/02/05 02:16:06;;;;;;;1.70;1.30;;;;;;;-1.62;100.00;100157.35;104434;1256;75454;-64
2023/02/05 02:18:35;;;;;;;1.30;1.00;;;;;;;-1.63;100.00;100157.34;104418;1256;70880;-63
2023/02/05 02:21:30;;;;;;;1.30;1.20;;;;;;;-1.63;100.00;100151.64;104232;1257;74165;-63
2023/02/05 02:24:20;;;;;;;1.40;1.30;;;;;;;-1.66;100.00;100151.27;104206;1268;62869;-63
2023/02/05 02:27:04;;;;;;;1.60;1.40;;;;;;;-1.66;100.00;100152.81;104332;1254;61554;-63
2023/02/05 02:29:43;;;;;;;1.80;1.30;;;;;;;-1.64;100.00;100150.11;104265;1263;74615;-63
2023/02/05 02:32:41;;;;;;;1.30;1.00;;;;;;;-1.64;100.00;100148.23;104341;1268;70334;-63
2023/02/05 02:35:29;;;;;;;1.80;1.70;;;;;;;-1.62;100.00;100149.09;104315;1256;72672;-63
2023/02/05 02:38:17;;;;;;;1.90;1.40;;;;;;;-1.60;100.00;100149.14;104305;1253;62363;-63
2023/02/05 02:40:52;;;;;;;1.30;1.20;;;;;;;-1.59;100.00;100152.59;104315;1256;61673;-63
2023/02/05 02:43:37;;;;;;;1.40;1.20;;;;;;;-1.56;100.00;100152.11;104697;1256;74194;-63
2023/02/05 02:46:09;;;;;;;2.00;1.50;;;;;;;-1.50;100.00;100150.48;104558;1255;69967;-63
2023/02/05 02:48:37;;;;;;;2.20;2.00;;;;;;;-1.50;100.00;100146.69;104273;1256;72782;-63
2023/02/05 02:51:06;;;;;;;1.90;1.70;;;;;;;-1.50;100.00;100150.13;104655;1257;61956;-64
2023/02/05 02:53:40;;;;;;;1.80;1.30;;;;;;;-1.51;100.00;100151.31;104542;1251;61634;-63
2023/02/05 02:56:10;;;;;;;1.70;1.30;;;;;;;-1.50;100.00;100154.77;104647;1257;74606;-64
2023/02/05 02:58:50;;;;;;;1.20;1.10;;;;;;;-1.49;100.00;100156.85;104483;1256;69870;-62
2023/02/05 03:01:20;;;;;;;1.70;1.50;;;;;;;-1.42;100.00;100161.76;104411;1262;73643;-62
2023/02/05 03:03:55;;;;;;;4.50;1.30;;;;;;;-1.37;100.00;100159.77;104615;1257;61794;-62
2023/02/05 03:06:23;;;;;;;2.20;1.80;;;;;;;-1.36;100.00;100169.92;104531;1261;61800;-63
2023/02/05 03:09:26;;;;;;;2.40;1.70;;;;;;;-1.38;100.00;100167.31;104400;1267;74118;-62
2023/02/05 03:11:56;;;;;;;1.60;1.50;;;;;;;-1.39;100.00;100171.10;104561;1272;70422;-66
2023/02/05 03:14:24;;;;;;;1.70;1.60;;;;;;;-1.36;100.00;100170.63;104360;1259;73920;-62
2023/02/05 03:16:54;;;;;;;1.40;1.30;;;;;;;-1.38;100.00;100170.77;104335;1257;63238;-62
2023/02/05 03:19:23;;;;;;;2.30;1.30;;;;;;;-1.38;100.00;100167.48;104283;1256;61701;-62
2023/02/05 03:21:56;;;;;;;2.20;1.80;;;;;;;-1.32;100.00;100167.23;104203;1265;74125;-62
2023/02/05 03:24:25;;;;;;;1.60;1.50;;;;;;;-1.34;100.00;100166.86;104369;1267;70414;-62
2023/02/05 03:26:53;;;;;;;1.70;1.60;;;;;;;-1.34;100.00;100165.14;104400;1254;74099;-63
2023/02/05 03:29:29;;;;;;;1.50;1.30;;;;;;;-1.34;100.00;100166.02;104218;1272;61267;-64
2023/02/05 03:32:27;;;;;;;1.70;1.50;;;;;;;-1.31;100.00;100163.45;104285;1267;60555;-62
2023/02/05 03:34:56;;;;;;;1.60;1.50;;;;;;;-1.33;100.00;100161.36;104354;1256;75494;-62
2023/02/05 03:37:32;;;;;;;3.10;1.50;;;;;;;-1.32;100.00;100164.15;104317;1267;70441;-66
2023/02/05 03:40:10;;;;;;;1.30;1.20;;;;;;;-1.28;100.00;100166.59;104283;1273;72800;-66
2023/02/05 03:42:38;;;;;;;1.70;1.50;;;;;;;-1.32;100.00;100168.44;104466;1257;61796;-65
2023/02/05 03:45:25;;;;;;;1.40;1.30;;;;;;;-1.36;100.00;100167.17;104253;1270;61695;-64
2023/02/05 03:48:14;;;;;;;1.50;1.40;;;;;;;-1.41;100.00;100171.08;104450;1256;74157;-64
2023/02/05 03:50:49;;;;;;;1.10;1.00;;;;;;;-1.42;100.00;100174.14;104394;1258;70308;-66
2023/02/05 03:53:36;;;;;;;1.70;1.50;;;;;;;-1.43;100.00;100176.38;104555;1266;73407;-65
2023/02/05 03:56:07;;;;;;;2.00;1.50;;;;;;;-1.40;100.00;100173.14;104273;1264;62918;-67
2023/02/05 03:58:45;;;;;;;1.90;1.40;;;;;;;-1.33;100.00;100171.34;104174;1272;61647;-64
2023/02/05 04:01:15;;;;;;;2.80;1.60;;;;;;;-1.34;100.00;100173.58;104476;1264;75504;-65
2023/02/05 04:03:44;;;;;;;1.40;1.30;;;;;;;-1.34;100.00;100176.15;104405;1264;69722;-64
2023/02/05 04:06:12;;;;;;;2.40;1.60;;;;;;;-1.34;100.00;100174.42;104476;1269;73910;-64
2023/02/05 04:08:44;;;;;;;1.70;1.50;;;;;;;-1.36;100.00;100178.86;104384;1260;61696;-65
2023/02/05 04:11:13;;;;;;;2.10;1.70;;;;;;;-1.37;100.00;100180.92;104434;1262;61645;-68
2023/02/05 04:13:43;;;;;;;1.90;1.70;;;;;;;-1.36;100.00;100182.30;104388;1261;75131;-66
2023/02/05 04:16:12;;;;;;;2.00;1.50;;;;;;;-1.36;100.00;100179.73;104445;1260;70520;-65
2023/02/05 04:18:40;;;;;;;2.20;1.80;;;;;;;-1.36;100.00;100182.66;104284;1255;74155;-65
2023/02/05 04:21:09;;;;;;;2.10;1.80;;;;;;;-1.32;100.00;100181.85;104354;1254;62343;-64
2023/02/05 04:23:39;;;;;;;2.40;1.90;;;;;;;-1.27;100.00;100177.80;104517;1252;61787;-64
2023/02/05 04:26:08;;;;;;;2.20;1.90;;;;;;;-1.23;100.00;100179.92;104400;1257;74871;-64
2023/02/05 04:28:42;;;;;;;3.40;1.80;;;;;;;-1.18;100.00;100180.16;104375;1256;70026;-62
2023/02/05 04:31:11;;;;;;;2.60;1.90;;;;;;;-1.18;100.00;100179.64;104675;1266;73124;-64
2023/02/05 04:33:40;;;;;;;2.00;1.80;;;;;;;-1.19;100.00;100180.66;104379;1272;61689;-64
2023/02/05 04:36:11;;;;;;;3.20;2.00;;;;;;;-1.20;100.00;100172.21;104343;1253;61737;-65
2023/02/05 04:38:39;;;;;;;3.00;1.80;;;;;;;-1.21;100.00;100170.65;104311;1262;75368;-63
2023/02/05 04:41:07;;;;;;;2.20;1.80;;;;;;;-1.24;100.00;100172.67;104393;1256;70924;-63
2023/02/05 04:43:36;;;;;;;2.30;1.80;;;;;;;-1.21;100.00;100176.68;104439;1257;73354;-64
2023/02/05 04:46:08;;;;;;;2.30;2.00;;;;;;;-1.14;100.00;100175.38;104541;1260;61791;-64
2023/02/05 04:48:37;;;;;;;1.90;1.70;;;;;;;-1.14;100.00;100171.09;104670;1256;61577;-64
2023/02/05 04:51:10;;;;;;;2.20;1.90;;;;;;;-1.19;100.00;100172.06;104312;1260;75239;-66
2023/02/05 04:53:39;;;;;;;2.50;2.00;;;;;;;-1.22;100.00;100176.66;104320;1251;69762;-64
2023/02/05 04:56:11;;;;;;;2.20;1.90;;;;;;;-1.22;100.00;100188.17;104510;1261;73009;-64
2023/02/05 04:58:39;;;;;;;2.00;1.80;;;;;;;-1.22;100.00;100196.95;104423;1268;63122;-64
2023/02/05 05:01:16;;;;;;;2.20;2.00;;;;;;;-1.21;100.00;100198.88;104376;1257;61683;-65
2023/02/05 05:03:45;;;;;;;2.40;2.00;;;;;;;-1.14;100.00;100193.10;104279;1258;74413;-64
2023/02/05 05:06:14;;;;;;;4.30;2.20;;;;;;;-1.10;100.00;100195.74;104208;1267;71162;-64
2023/02/05 05:08:42;;;;;;;1.90;1.70;;;;;;;-1.12;100.00;100194.69;104576;1251;73611;-64
2023/02/05 05:11:17;;;;;;;2.50;2.30;;;;;;;-1.09;100.00;100198.85;104442;1251;60457;-64
2023/02/05 05:13:48;;;;;;;2.40;1.80;;;;;;;-1.13;100.00;100197.94;104351;1255;61677;-65
2023/02/05 05:16:17;;;;;;;3.10;2.00;;;;;;;-1.09;100.00;100196.61;104393;1251;74105;-65
2023/02/05 05:18:46;;;;;;;2.80;2.00;;;;;;;-1.02;100.00;100200.50;104243;1270;70594;-67
2023/02/05 05:21:14;;;;;;;2.30;2.10;;;;;;;-0.96;100.00;100204.36;104198;1266;73069;-64
2023/02/05 05:23:42;;;;;;;2.30;2.10;;;;;;;-1.01;100.00;100202.23;104312;1267;60869;-63
2023/02/05 05:26:11;;;;;;;2.90;2.00;;;;;;;-1.02;100.00;100202.90;104200;1253;60459;-63
2023/02/05 05:28:39;;;;;;;2.80;2.00;;;;;;;-1.03;100.00;100206.67;104381;1263;74536;-63
2023/02/05 05:31:15;;;;;;;2.00;1.80;;;;;;;-1.07;100.00;100208.69;104259;1267;70296;-66
2023/02/05 05:33:44;;;;;;;2.10;1.90;;;;;;;-1.05;100.00;100211.98;104262;1266;73293;-68
2023/02/05 05:36:13;;;;;;;2.60;2.10;;;;;;;-0.98;100.00;100216.02;104172;1256;63005;-70
2023/02/05 05:38:41;;;;;;;2.80;2.30;;;;;;;-0.88;100.00;100210.30;104408;1272;61420;-66
2023/02/05 05:44:09;;;;;;;2.60;2.30;;;;;;;-0.81;100.00;100219.70;104385;1257;70161;-68
2023/02/05 05:46:40;;;;;;;2.50;2.30;;;;;;;-0.82;100.00;100222.45;104289;1251;75373;-69
2023/02/05 05:49:09;;;;;;;3.20;2.10;;;;;;;-0.87;100.00;100228.39;104456;1256;61665;-72
2023/02/05 05:51:38;;;;;;;3.20;2.80;;;;;;;-0.84;100.00;100231.02;104601;1260;61606;-67
2023/02/05 05:54:06;;;;;;;2.80;2.40;;;;;;;-0.74;100.00;100236.13;104341;1255;75290;-66
2023/02/05 05:56:35;;;;;;;4.20;3.10;;;;;;;-0.68;100.00;100237.23;104277;1270;69980;-65
2023/02/05 05:59:03;;;;;;;4.00;3.10;;;;;;;-0.64;100.00;100237.30;104293;1251;74161;-68
2023/02/05 06:01:32;;;;;;;2.80;2.60;;;;;;;-0.62;100.00;100242.83;104374;1251;62903;-66
2023/02/05 06:04:00;;;;;;;3.00;2.40;;;;;;;-0.69;100.00;100246.00;104417;1267;61582;-64
2023/02/05 06:06:32;;;;;;;3.00;2.70;;;;;;;-0.68;100.00;100251.36;104201;1255;75286;-65
2023/02/05 06:11:32;;;;;;;3.20;2.90;;;;;;;-1.00;100.00;100260.55;101713;1293;602875;-68
2023/02/05 06:14:01;;;;;;;4.00;2.70;;;;;;;-0.61;100.00;100261.60;103865;1275;60701;-64
2023/02/05 06:16:29;;;;;;;2.50;2.30;;;;;;;-0.55;100.00;100258.77;104270;1255;61465;-65
2023/02/05 06:18:58;;;;;;;2.70;2.50;;;;;;;-0.45;100.00;100260.60;104322;1268;73165;-66
2023/02/05 06:21:26;;;;;;;2.40;2.20;;;;;;;-0.43;100.00;100264.58;104326;1265;70348;-70
2023/02/05 06:23:56;;;;;;;3.10;2.60;;;;;;;-0.41;100.00;100270.11;104246;1276;73239;-69
2023/02/05 06:26:25;;;;;;;2.70;2.50;;;;;;;-0.37;100.00;100266.38;104116;1251;62045;-68
2023/02/05 06:28:56;;;;;;;3.50;2.80;;;;;;;-0.28;100.00;100267.52;104455;1253;61256;-66
2023/02/05 06:31:24;;;;;;;3.50;3.00;;;;;;;-0.23;100.00;100267.58;104351;1256;74213;-66
2023/02/05 06:33:54;;;;;;;3.00;2.50;;;;;;;-0.23;100.00;100268.61;104395;1256;70108;-67
2023/02/05 06:36:23;;;;;;;2.50;2.30;;;;;;;-0.24;100.00;100267.39;104237;1253;73435;-67
2023/02/05 06:38:51;;;;;;;2.80;2.40;;;;;;;-0.25;100.00;100266.34;104366;1250;61646;-69
2023/02/05 06:41:20;;;;;;;3.40;3.00;;;;;;;-0.28;100.00;100273.38;104342;1253;60945;-66
2023/02/05 06:43:48;;;;;;;2.90;2.60;;;;;;;-0.28;100.00;100275.95;104357;1265;73633;-64
2023/02/05 06:46:17;;;;;;;2.90;2.70;;;;;;;-0.26;100.00;100273.40;104317;1263;70246;-63
2023/02/05 06:48:46;;;;;;;2.60;2.40;;;;;;;-0.23;100.00;100274.29;104327;1256;73542;-62
2023/02/05 06:51:14;;;;;;;2.90;2.70;;;;;;;-0.25;100.00;100278.23;104225;1254;60892;-64
2023/02/05 06:53:43;;;;;;;3.40;2.80;;;;;;;-0.24;100.00;100279.61;104373;1273;60388;-64
2023/02/05 06:56:11;;;;;;;3.40;2.40;;;;;;;-0.25;100.00;100281.68;104368;1266;73359;-64
2023/02/05 06:58:40;;;;;;;4.80;3.20;;;;;;;-0.19;100.00;100288.45;104261;1266;71805;-69
2023/02/05 07:02:45;;;;;;;3.10;2.80;;;;;;;-0.46;100.00;100290.02;102087;1291;602650;-66
2023/02/05 07:05:14;;;;;;;4.00;3.30;;;;;;;-0.21;100.00;100288.09;103919;1264;60511;-71
2023/02/05 07:07:42;;;;;;;3.40;3.10;;;;;;;-0.16;100.00;100291.77;103837;1280;61881;-67
2023/02/05 07:10:12;;;;;;;3.50;2.60;;;;;;;-0.08;100.00;100288.93;103864;1265;73836;-70
2023/02/05 07:36:56;;;;;;;4.20;3.50;;;;;;;-2.07;100.00;100321.88;102410;1289;601782;-67
2023/02/05 07:39:26;;;;;;;4.70;4.00;;;;;;;-1.27;100.00;100315.40;103922;1267;62027;-68
2023/02/05 07:41:55;;;;;;;4.70;3.60;;;;;;;-1.03;100.00;100311.47;103758;1285;59344;-71
2023/02/05 07:44:32;;;;;;;5.00;3.80;;;;;;;-0.84;100.00;100305.39;103621;1270;71953;-69
2023/02/05 07:47:01;;;;;;;4.30;3.90;;;;;;;-0.71;100.00;100306.92;103788;1266;70581;-69
2023/02/05 07:49:30;;;;;;;4.50;4.10;;;;;;;-0.62;100.00;100304.82;103330;1265;200538;-61
2023/02/05 07:51:58;;;;;;;4.40;3.70;;;;;;;-0.54;100.00;100303.54;103749;1263;60800;-66
2023/02/05 07:54:26;;;;;;;4.30;3.50;;;;;;;-0.39;100.00;100303.05;103944;1262;60271;-62
2023/02/05 07:56:55;;;;;;;4.60;3.60;;;;;;;-0.27;100.00;100300.79;103928;1262;72144;-62
2023/02/05 07:59:24;;;;;;;4.30;3.90;;;;;;;-0.14;100.00;100301.61;103910;1276;69891;-62
2023/02/05 08:01:52;;;;;;;3.40;3.10;;;;;;;-0.07;100.00;100305.48;104387;1263;72625;-64
2023/02/05 08:04:20;;;;;;;3.30;3.00;;;;;;;-0.04;100.00;100306.73;104003;1276;62006;-62
2023/02/05 08:06:49;;;;;;;4.70;3.30;;;;;;;0.04;100.00;100311.29;104179;1266;61504;-63
2023/02/05 08:09:18;;;;;;;4.60;3.60;;;;;;;0.12;100.00;100310.67;104317;1263;73711;-62
2023/02/05 08:11:46;;;;;;;4.20;3.80;;;;;;;0.19;100.00;100307.82;103952;1270;70075;-62
2023/02/05 08:14:16;;;;;;;3.90;3.50;;;;;;;0.22;100.00;100307.67;104225;1265;73061;-61
2023/02/05 08:16:44;;;;;;;4.50;3.50;;;;;;;0.21;100.00;100316.81;104129;1259;60876;-63
2023/02/05 08:19:16;;;;;;;3.90;3.40;;;;;;;0.22;100.00;100321.98;104159;1254;60966;-63
2023/02/05 08:21:45;;;;;;;3.90;3.50;;;;;;;0.17;100.00;100318.84;104429;1257;75117;-62
2023/02/05 08:24:14;;;;;;;4.20;3.30;;;;;;;0.14;100.00;100320.35;104508;1257;70662;-62
2023/02/05 08:26:43;;;;;;;4.60;4.10;;;;;;;0.18;100.00;100326.27;104500;1259;73547;-62
2023/02/05 08:29:11;;;;;;;4.70;3.60;;;;;;;0.27;100.00;100325.48;104185;1254;61016;-63
2023/02/05 08:31:40;;;;;;;4.20;3.40;;;;;;;0.34;100.00;100329.88;104230;1262;62227;-61
2023/02/05 08:34:09;;;;;;;5.10;3.80;;;;;;;0.40;100.00;100331.13;104503;1263;75361;-61
2023/02/05 08:36:38;;;;;;;4.50;4.10;;;;;;;0.46;100.00;100335.49;104437;1259;70032;-64
2023/02/05 08:39:07;;;;;;;4.30;3.60;;;;;;;0.52;100.00;100337.45;104460;1254;75141;-62
2023/02/05 08:41:36;;;;;;;3.80;3.40;;;;;;;0.55;100.00;100340.26;104253;1254;63064;-62
2023/02/05 08:44:05;;;;;;;4.00;3.60;;;;;;;0.64;100.00;100341.87;104595;1254;62187;-60
2023/02/05 08:46:35;;;;;;;3.80;3.50;;;;;;;0.68;100.00;100340.02;104473;1259;75258;-62
2023/02/05 08:49:17;;;;;;;4.40;3.60;;;;;;;0.71;100.00;100340.38;104446;1270;72070;-63
2023/02/05 08:51:46;;;;;;;3.60;3.30;;;;;;;0.75;100.00;100341.27;104510;1262;74025;-62
2023/02/05 08:54:14;;;;;;;4.20;3.60;;;;;;;0.78;100.00;100343.55;104832;1257;61342;-61
2023/02/05 08:56:44;;;;;;;5.00;3.80;;;;;;;0.79;100.00;100348.91;104317;1261;63124;-60
2023/02/05 08:59:13;;;;;;;4.40;3.90;;;;;;;0.77;100.00;100349.76;104341;1260;75810;-60
2023/02/05 09:01:42;;;;;;;4.00;3.30;;;;;;;0.80;100.00;100352.54;104441;1266;70489;-60
2023/02/05 09:04:15;;;;;;;3.20;2.80;;;;;;;0.84;100.00;100353.60;104274;1253;74432;-60
2023/02/05 09:06:44;;;;;;;3.90;3.50;;;;;;;0.73;100.00;100352.48;104773;1259;61698;-60
2023/02/05 09:09:12;;;;;;;4.20;3.60;;;;;;;0.78;100.00;100359.26;104380;1259;63012;-63
2023/02/05 09:11:47;;;;;;;4.10;3.70;;;;;;;0.92;100.00;100361.27;104622;1256;73758;-61
2023/02/05 09:14:17;;;;;;;3.90;3.50;;;;;;;1.01;100.00;100359.77;104299;1260;71666;-63
2023/02/05 09:16:46;;;;;;;4.80;4.00;;;;;;;0.96;100.00;100359.90;104639;1259;74091;-62
2023/02/05 09:19:15;;;;;;;4.00;3.60;;;;;;;0.90;100.00;100362.11;104384;1259;60866;-62
2023/02/05 09:21:43;;;;;;;5.40;3.90;;;;;;;0.91;100.00;100354.86;104216;1272;61124;-61
2023/02/05 09:24:12;;;;;;;3.80;3.40;;;;;;;0.98;100.00;100351.12;104661;1256;74465;-61
2023/02/05 09:26:41;;;;;;;3.90;3.50;;;;;;;1.06;100.00;100347.55;104088;1261;70339;-60
2023/02/05 09:29:10;;;;;;;4.00;3.40;;;;;;;1.11;100.00;100348.45;104290;1273;73987;-62
2023/02/05 09:31:39;;;;;;;3.90;3.50;;;;;;;1.15;100.00;100344.69;104062;1253;61802;-61
2023/02/05 09:34:09;;;;;;;3.70;3.30;;;;;;;1.21;100.00;100342.48;104380;1258;61277;-61
2023/02/05 09:36:39;;;;;;;4.30;3.90;;;;;;;1.24;100.00;100340.77;104375;1256;73618;-61
2023/02/05 09:39:08;;;;;;;4.70;3.60;;;;;;;1.13;100.00;100341.73;104363;1255;71693;-67
2023/02/05 09:42:01;;;;;;;4.30;3.50;;;;;;;1.09;100.00;100336.36;104312;1262;74576;-64
2023/02/05 09:44:44;;;;;;;4.00;3.50;;;;;;;1.06;100.00;100332.54;104444;1260;60874;-61
2023/02/05 09:47:22;;;;;;;3.70;3.30;;;;;;;1.04;100.00;100332.17;104485;1266;60908;-68
2023/02/05 09:50:08;;;;;;;3.80;3.40;;;;;;;1.02;100.00;100341.29;104669;1259;73127;-67
2023/02/05 09:52:38;;;;;;;3.90;3.50;;;;;;;4.98;100.00;100402.16;104373;1272;71175;-66
2023/02/05 09:55:16;;;;;;;4.00;3.40;;;;;;;4.72;100.00;100344.02;104193;1265;73226;-70
2023/02/05 09:57:47;;;;;;;4.00;3.60;;;;;;;4.62;100.00;100323.25;104375;1270;63368;-69
2023/02/05 10:00:18;;;;;;;3.50;3.20;;;;;;;4.72;100.00;100319.87;104194;1267;62285;-68
2023/02/05 10:02:59;;;;;;;4.40;3.90;;;;;;;4.66;100.00;100320.79;104641;1257;74203;-69
2023/02/05 10:05:29;;;;;;;3.80;3.30;;;;;;;4.69;100.00;100321.45;104211;1259;71808;-72
2023/02/05 10:08:05;;;;;;;3.80;3.50;;;;;;;4.71;100.00;100321.09;104363;1260;76222;-67
2023/02/05 10:10:43;;;;;;;3.50;3.10;;;;;;;4.72;100.00;100325.95;104680;1258;61925;-68
2023/02/05 10:13:27;;;;;;;3.00;2.70;;;;;;;4.85;100.00;100321.86;104359;1255;60757;-72
2023/02/05 10:16:25;;;;;;;3.70;3.40;;;;;;;4.96;100.00;100323.48;104339;1256;74586;-69
2023/02/05 10:19:19;;;;;;;4.30;3.50;;;;;;;4.95;100.00;100328.88;104411;1255;72694;-63
2023/02/05 12:56:46;;;;;;;4.80;3.10;;;;;;;-0.84;100.00;100461.31;101826;1294;600730;-65
2023/02/05 12:59:30;;;;;;;3.40;3.10;;;;;;;0.01;100.00;100462.59;103544;1272;62025;-68
2023/02/05 13:02:06;;;;;;;4.60;3.90;;;;;;;0.24;100.00;100461.67;103634;1287;60141;-69
2023/02/05 13:04:54;;;;;;;4.20;3.70;;;;;;;0.44;100.00;100453.30;103640;1274;72404;-65
2023/02/05 13:07:49;;;;;;;5.80;4.90;;;;;;;0.56;100.00;100454.65;103657;1269;70083;-63
2023/02/05 13:10:27;;;;;;;5.30;4.80;;;;;;;0.67;100.00;100457.35;103787;1265;147249;-67
2023/02/05 13:12:59;;;;;;;5.50;4.90;;;;;;;0.76;100.00;100460.72;103983;1263;62215;-67
2023/02/05 13:15:30;;;;;;;4.70;4.20;;;;;;;0.82;100.00;100463.02;103913;1264;59502;-63
2023/02/05 13:18:06;;;;;;;5.00;4.10;;;;;;;0.86;100.00;100468.75;103880;1260;71652;-66
2023/02/05 13:28:46;;;;;;;5.30;4.70;;;;;;;1.04;100.00;100472.38;103825;1282;60180;-67
2023/02/05 13:31:27;;;;;;;4.90;4.30;;;;;;;1.15;100.00;100472.65;104045;1262;73261;-68
2023/02/05 13:34:01;;;;;;;4.90;4.30;;;;;;;1.18;100.00;100475.44;104050;1259;69899;-67
2023/02/05 13:36:40;;;;;;;4.60;4.20;;;;;;;1.22;100.00;100477.20;103853;1264;72861;-70
2023/02/05 13:39:43;;;;;;;5.00;4.20;;;;;;;1.20;100.00;100480.63;104260;1261;60265;-68
2023/02/05 13:42:59;;;;;;;7.80;4.70;;;;;;;1.26;100.00;100481.20;104397;1262;60424;-66
2023/02/05 13:45:56;;;;;;;5.80;5.10;;;;;;;1.32;100.00;100487.48;104157;1261;72266;-68
2023/02/05 13:48:28;;;;;;;;;;;;;;;1.40;100.00;100493.59;104347;1272;68626;-65
2023/02/05 13:51:22;;;;;;;7.40;5.10;;;;;;;1.40;100.00;100494.27;104500;1257;71973;-69
2023/02/05 13:54:11;;;;;;;5.90;4.80;;;;;;;1.45;100.00;100499.51;104232;1260;60370;-64
2023/02/05 13:56:52;;;;;;;6.80;5.10;;;;;;;1.44;100.00;100496.21;104431;1262;60102;-66
2023/02/05 13:59:21;;;;;;;7.20;5.60;;;;;;;1.49;100.00;100497.65;104303;1257;71934;-64
2023/02/05 14:01:54;;;;;;;8.30;6.00;;;;;;;1.51;100.00;100500.08;104431;1260;68587;-66
2023/02/05 14:04:29;;;;;;;8.00;5.20;;;;;;;1.54;100.00;100500.79;104528;1263;72037;-65
2023/02/05 14:07:02;;;;;;;6.10;5.50;;;;;;;1.54;100.00;100510.29;104327;1257;59743;-66
2023/02/05 14:09:42;;;;;;;5.80;5.20;;;;;;;1.51;100.00;100508.71;104337;1260;61419;-70
2023/02/05 14:12:12;;;;;;;7.70;5.90;;;;;;;1.48;100.00;100511.79;104365;1260;72168;-66
2023/02/05 14:14:40;;;;;;;7.00;5.00;;;;;;;1.53;100.00;100513.73;104102;1272;70400;-63
2023/02/05 14:17:38;;;;;;;5.60;5.00;;;;;;;1.62;100.00;100515.18;104419;1261;71987;-63
2023/02/05 14:20:23;;;;;;;6.70;5.10;;;;;;;1.58;100.00;100518.95;104096;1267;59724;-62
2023/02/05 14:23:02;;;;;;;6.80;5.40;;;;;;;1.48;100.00;100521.14;104247;1272;61310;-62
2023/02/05 14:25:44;;;;;;;5.90;5.30;;;;;;;1.46;100.00;100519.73;104300;1257;73167;-63
2023/02/05 14:28:13;;;;;;;6.10;5.20;;;;;;;1.44;100.00;100523.17;104384;1257;71113;-62
2023/02/05 14:31:03;;;;;;;6.40;5.60;;;;;;;1.46;100.00;100521.80;104203;1269;74776;-63
2023/02/05 14:33:42;;;;;;;6.10;5.30;;;;;;;1.49;100.00;100524.60;104335;1262;60873;-63
2023/02/05 14:36:21;;;;;;;6.30;4.90;;;;;;;1.48;100.00;100530.45;104215;1260;60228;-63
2023/02/05 14:38:54;;;;;;;6.10;5.30;;;;;;;1.41;100.00;100528.31;104291;1261;72565;-63
2023/02/05 14:41:34;;;;;;;6.90;5.50;;;;;;;1.42;100.00;100528.17;104129;1262;68664;-63
2023/02/05 14:44:04;;;;;;;7.30;5.50;;;;;;;1.48;100.00;100530.11;104177;1263;72717;-63
2023/02/05 14:46:36;;;;;;;5.40;4.60;;;;;;;1.49;100.00;100534.97;104109;1260;60947;-62
2023/02/05 14:49:06;;;;;;;7.20;5.70;;;;;;;1.51;100.00;100539.81;104351;1253;59727;-63
2023/02/05 14:51:39;;;;;;;6.60;5.30;;;;;;;1.49;100.00;100541.00;104317;1271;73222;-66